Verstervig, Denmark
Current Conditions -  °F | °C
As of 8:20 PM on Friday 28 Nov 2014 (Local Time) from EKKA Reporting Station
Overcast Overcast  
Wind Chill: 30°   Ceiling: 2700
Heat Index: 39°   Visibility: 6mi
Dew Point: 32°   Wind: 16mph
Humidity: 75%   Direction: 100°E
Pressure: 30.21"   Gusts: NA
Location:  56.7°N, 8.22°E
Report Text: EKKA 281920Z AUTO 10014KT 9999NDV OVC027/// 04/00 Q1023
Loading
Personal Weather Stations






























Interactive Weather Map New forecast layout! Learn more

10-Day Weather Forecast

Advertisements
Track Severe Weather on mobile